Terminal Aerodrome Forecast
Issued by NWS

Home | Current Version | Previous Version | Text Only | Print | Product List | Glossary On
Versions: 1 2 3 4 5 6 7 8 9 10 11 12 13 14 15 16 17 18 19 20 21 22
864
FTUS41 KILN 170544
TAFLUK
TAF
KLUK 170544Z 1706/1806 19005KT P6SM BKN200
     FM170800 19005KT P6SM VCTS BKN060CB
     FM171200 20007KT P6SM VCTS SCT050CB BKN120
     FM171700 22010G16KT P6SM -SHRA VCTS BKN040CB
     FM180300 22007KT P6SM BKN070=

USA.gov is the U.S. government's official web portal to all federal, state and local government web resources and services.